Flight Track Log - Related Links

Times and Time Zones

All times are in EDT time to prevent confusion due to time zone crossing. See the UAL495 flight status page for this flight to view local times or setup timezone preferences in your user account.

Time Position Orientation Groundspeed Altitude Reporting Facility
EDT Latitude Longitude Course Direction KTS MPH feet Rate Location/Type
Wed 01:24:30 PM 39.9167 -104.6833 90° East 176 203 6,800  Level Denver TRACON
Wed 01:25:30 PM 39.9500 -104.6167 57° Northeast 223 257 8,800 1,900 Climbing Denver TRACON
Wed 01:26:30 PM 39.9500 -104.5167 90° East 278 320 10,600 1,400 Climbing Denver TRACON
Wed 01:27:00 PM 39.8667 -104.0418 90° East  Level FlightAware Approximate
Wed 01:27:30 PM 39.9333 -104.4167 102° East 328 377 11,600  Level Denver TRACON
Wed 01:28:00 PM 39.8667 -103.8853 90° East  Level FlightAware Approximate
Wed 01:28:08 PM 39.9344 -104.3217 89° East 356 410 13,000  Level Denver Center
Wed 01:29:00 PM 39.8833 -103.7322 90° East  Level FlightAware Approximate
Wed 01:29:10 PM 39.9222 -104.1897 97° East 366 421 15,700  Level Denver Center
Wed 01:30:12 PM 39.9106 -104.0494 96° East 388 447 17,500 1,935 Climbing Denver Center
Wed 01:31:14 PM 39.8981 -103.8928 96° East 402 463 19,700 1,742 Climbing Denver Center
Wed 01:32:16 PM 39.8839 -103.7394 97° East 430 495 21,100 1,306 Climbing Denver Center
Wed 01:33:18 PM 39.9011 -103.5725 82° East 459 528 22,400 1,210 Climbing Denver Center
Wed 01:34:20 PM 39.9217 -103.3942 81° East 490 564 23,600 1,887 Climbing Denver Center
Wed 01:35:22 PM 39.9414 -103.2161 82° East 491 565 26,300 2,032 Climbing Denver Center
Wed 01:36:24 PM 39.9611 -103.0397 82° East 489 563 27,800 1,210 Climbing Denver Center
Wed 01:37:26 PM 39.9811 -102.8586 82° East 500 575 28,800 726 Climbing Denver Center
Wed 01:38:28 PM 40.0044 -102.6414 82° East 513 590 29,300 823 Climbing Denver Center
Wed 01:39:30 PM 40.0267 -102.4622 81° East 521 600 30,500 1,403 Climbing Denver Center
Wed 01:40:32 PM 40.0431 -102.2808 83° East 525 604 32,200 1,210 Climbing Denver Center
Wed 01:41:34 PM 40.0647 -102.0731 82° East 520 598 33,000 387 Climbing Denver Center
Wed 01:42:36 PM 40.0831 -101.8914 82° East 526 605 33,000  Level Denver Center
Wed 01:43:38 PM 40.1039 -101.6783 83° East 529 609 33,000  Level Denver Center
Wed 01:44:40 PM 40.1211 -101.4972 83° East 528 608 33,000  Level Denver Center
Wed 01:45:42 PM 40.1406 -101.2856 83° East 527 606 33,000  Level Denver Center
Wed 01:46:44 PM 40.1567 -101.1025 83° East 531 611 33,000  Level Denver Center
Wed 01:47:46 PM 40.1761 -100.8922 83° East 525 604 33,000  Level Denver Center
Wed 01:48:48 PM 40.1933 -100.7119 83° East 525 604 33,000  Level Denver Center
Wed 01:49:49 PM 40.2233 -100.5056 79° East 521 600 33,000  Level Denver Center
Wed 01:50:51 PM 40.2622 -100.3300 74° East 526 605 33,000  Level Denver Center
Wed 01:51:53 PM 40.3067 -100.1278 74° East 522 601 33,000  Level Denver Center
Wed 01:52:55 PM 40.3444 -99.9553 74° East 517 595 33,000  Level Denver Center
Wed 01:53:57 PM 40.3831 -99.7731 74° East 519 597 33,000  Level Denver Center
Wed 01:54:59 PM 40.4214 -99.5919 74° East 517 595 33,000  Level Denver Center
Wed 01:56:13 PM 40.4675 -99.3764 74° East 513 590 33,000  Level Denver Center
Wed 01:57:15 PM 40.5131 -99.1600 74° East 515 593 33,000  Level Denver Center
Wed 01:57:42 PM 40.5289 -99.0897 73° East 514 592 33,000  Level Minneapolis Center
Wed 01:58:43 PM 40.5656 -98.9094 75° East 514 592 33,000  Level Minneapolis Center
Wed 01:59:47 PM 40.6019 -98.7308 75° East 511 588 33,000  Level Minneapolis Center
Wed 02:00:48 PM 40.6450 -98.5164 75° East 509 586 33,000  Level Minneapolis Center
Wed 02:01:50 PM 40.6806 -98.3367 75° East 510 587 33,000  Level Minneapolis Center
Wed 02:02:52 PM 40.7164 -98.1578 75° East 509 586 33,000  Level Minneapolis Center
Wed 02:03:53 PM 40.7522 -97.9794 75° East 507 583 33,000  Level Minneapolis Center
Wed 02:04:55 PM 40.7856 -97.8014 76° East 504 580 33,000  Level Minneapolis Center
Wed 02:05:57 PM 40.8208 -97.6244 75° East 501 577 33,000  Level Minneapolis Center
Wed 02:06:58 PM 40.8531 -97.4461 77° East 500 575 33,000  Level Minneapolis Center
Wed 02:08:00 PM 40.8903 -97.2544 76° East 498 573 33,000 48 Level Minneapolis Center
Wed 02:09:02 PM 40.9242 -97.0764 76° East 499 574 33,100 683 Climbing Minneapolis Center
Wed 02:10:03 PM 40.9569 -96.9008 76° East 496 571 34,400 927 Climbing Minneapolis Center
Wed 02:11:05 PM 40.9967 -96.6894 76° East 495 570 35,000 290 Climbing Minneapolis Center
Wed 02:12:07 PM 41.0289 -96.5119 76° East 497 572 35,000  Level Minneapolis Center
Wed 02:13:09 PM 41.0403 -96.3358 85° East 487 560 35,000  Level Minneapolis Center
Wed 02:14:10 PM 41.0472 -96.1631 87° East 478 550 35,000  Level Minneapolis Center
Wed 02:15:12 PM 41.0442 -95.9892 91° East 478 550 35,000  Level Minneapolis Center
Wed 02:16:14 PM 41.0419 -95.8158 91° East 478 550 35,000  Level Minneapolis Center
Wed 02:17:15 PM 41.0397 -95.6053 91° East 480 552 35,000  Level Minneapolis Center
Wed 02:18:17 PM 41.0369 -95.4306 91° East 478 550 35,000  Level Minneapolis Center
Wed 02:19:19 PM 41.0331 -95.2561 92° East 477 549 35,000  Level Minneapolis Center
Wed 02:20:20 PM 41.0297 -95.0833 91° East 473 544 35,000  Level Minneapolis Center
Wed 02:21:22 PM 41.0242 -94.9125 92° East 468 539 35,000  Level Minneapolis Center
Wed 02:22:24 PM 41.0197 -94.7408 92° East 468 539 35,000  Level Minneapolis Center
Wed 02:23:26 PM 41.0144 -94.5564 92° East 467 537 35,000  Level Minneapolis Center
Wed 02:24:27 PM 41.0097 -94.3869 92° East 467 537 35,000  Level Minneapolis Center
Wed 02:25:29 PM 41.0042 -94.2172 92° East 465 535 35,000  Level Minneapolis Center
Wed 02:26:31 PM 40.9981 -94.0142 92° East 464 534 35,000  Level Minneapolis Center
Wed 02:27:32 PM 40.9908 -93.8458 93° East 462 532 35,000  Level Minneapolis Center
Wed 02:28:34 PM 40.9858 -93.6764 92° East 463 533 35,000  Level Minneapolis Center
Wed 02:29:36 PM 40.9800 -93.5100 93° East 458 527 35,000  Level Minneapolis Center
Wed 02:30:37 PM 40.9739 -93.3419 93° East 458 527 35,000  Level Minneapolis Center
Wed 02:31:39 PM 40.9672 -93.1750 93° East 459 528 35,000  Level Minneapolis Center
Wed 02:32:41 PM 40.9611 -93.0069 93° East 459 528 35,000  Level Minneapolis Center
Wed 02:33:43 PM 40.9519 -92.8047 93° East 460 529 35,000  Level Minneapolis Center
Wed 02:34:03 PM 40.9500 -92.7700 94° East 459 528 35,000  Level Chicago Center
Wed 02:35:05 PM 40.9431 -92.6017 93° East 458 527 35,000  Level Chicago Center
Wed 02:36:07 PM 40.9339 -92.3986 93° East 460 529 35,000  Level Chicago Center
Wed 02:37:09 PM 40.9264 -92.2331 93° East 456 525 35,000  Level Chicago Center
Wed 02:38:11 PM 40.9169 -92.0667 94° East 456 525 35,000  Level Chicago Center
Wed 02:39:13 PM 40.9078 -91.8994 94° East 457 526 35,000  Level Chicago Center
Wed 02:40:16 PM 40.8994 -91.7333 94° East 457 526 35,000  Level Chicago Center
Wed 02:41:17 PM 40.8889 -91.5358 94° East 453 521 35,000  Level Chicago Center
Wed 02:42:19 PM 40.8811 -91.3717 94° East 453 521 35,000  Level Chicago Center
Wed 02:43:21 PM 40.8719 -91.2008 94° East 453 521 35,000  Level Chicago Center
Wed 02:44:23 PM 40.8614 -91.0358 95° East 450 518 35,000  Level Chicago Center
Wed 02:45:25 PM 40.8508 -90.8708 95° East 452 520 35,000  Level Chicago Center
Wed 02:46:28 PM 40.8417 -90.7067 94° East 448 516 35,000  Level Chicago Center
Wed 02:47:30 PM 40.8303 -90.5436 95° East 446 513 35,000  Level Chicago Center
Wed 02:48:32 PM 40.8186 -90.3472 94° East 449 517 35,000  Level Chicago Center
Wed 02:49:34 PM 40.8086 -90.1911 95° East 448 516 35,000  Level Chicago Center
Wed 02:50:36 PM 40.7978 -90.0297 95° East 446 513 35,000  Level Chicago Center
Wed 02:51:38 PM 40.7889 -89.8664 94° East 448 516 35,000  Level Chicago Center
Wed 02:52:40 PM 40.7719 -89.6708 96° East 460 529 35,000  Level Chicago Center
Wed 02:53:42 PM 40.7611 -89.5147 95° East 452 520 35,000  Level Chicago Center
Wed 02:54:44 PM 40.7481 -89.3508 96° East 450 518 35,000  Level Chicago Center
Wed 02:55:46 PM 40.7353 -89.1878 96° East 449 517 35,000  Level Chicago Center
Wed 02:56:48 PM 40.7247 -89.0233 95° East 450 518 35,000  Level Chicago Center
Wed 02:57:50 PM 40.7069 -88.8289 97° East 448 516 35,000  Level Chicago Center
Wed 02:58:53 PM 40.6950 -88.6672 96° East 448 516 35,000  Level Chicago Center
Wed 02:59:55 PM 40.6811 -88.5044 96° East 452 520 35,000  Level Chicago Center
Wed 03:00:57 PM 40.6692 -88.3414 95° East 452 520 35,000 194 Level Chicago Center
Wed 03:01:59 PM 40.6525 -88.1461 96° East 451 519 35,400 774 Climbing Chicago Center
Wed 03:03:01 PM 40.6394 -87.9839 96° East 451 519 36,600 561 Climbing Chicago Center
Wed 03:04:50 PM 40.6128 -87.6939 97° East 442 509 37,000 194 Climbing Indianapolis Center
Wed 03:05:05 PM 40.6119 -87.6667 92° East 439 505 37,000  Level Chicago Center
Wed 03:06:07 PM 40.5972 -87.5078 97° East 440 506 37,000  Level Chicago Center
Wed 03:07:09 PM 40.5792 -87.3167 97° East 444 511 37,000  Level Chicago Center
Wed 03:08:11 PM 40.5644 -87.1556 97° East 449 517 37,000  Level Chicago Center
Wed 03:09:13 PM 40.5531 -86.9878 95° East 448 516 37,000  Level Chicago Center
Wed 03:10:16 PM 40.5419 -86.8217 95° East 451 519 37,000  Level Chicago Center
Wed 03:11:18 PM 40.5317 -86.6547 95° East 453 521 37,000  Level Chicago Center
Wed 03:12:20 PM 40.5217 -86.4875 94° East 454 522 37,000  Level Chicago Center
Wed 03:13:22 PM 40.5114 -86.3194 95° East 456 525 37,000  Level Chicago Center
Wed 03:14:24 PM 40.4986 -86.1228 95° East 459 528 37,000  Level Chicago Center
Wed 03:15:26 PM 40.4881 -85.9519 95° East 463 533 37,000  Level Chicago Center
Wed 03:16:28 PM 40.4756 -85.7828 95° East 463 533 37,000  Level Chicago Center
Wed 03:17:30 PM 40.4631 -85.6161 96° East 457 526 37,000  Level Chicago Center
Wed 03:18:32 PM 40.4492 -85.4475 96° East 459 528 37,000  Level Chicago Center
Wed 03:19:34 PM 40.4392 -85.2839 95° East 449 517 37,000  Level Chicago Center
Wed 03:20:36 PM 40.4256 -85.1175 96° East 453 521 37,000  Level Chicago Center
Wed 03:21:22 PM 40.4142 -84.9811 96° East 447 514 37,000  Level Indianapolis Center
Wed 03:22:24 PM 40.4014 -84.8108 96° East 448 516 37,000  Level Indianapolis Center
Wed 03:23:27 PM 40.3886 -84.6478 96° East 446 513 37,000  Level Indianapolis Center
Wed 03:24:29 PM 40.3753 -84.4839 96° East 447 514 37,000  Level Indianapolis Center
Wed 03:25:31 PM 40.3619 -84.3203 96° East 447 514 37,000  Level Indianapolis Center
Wed 03:26:33 PM 40.3483 -84.1572 96° East 445 512 37,000  Level Indianapolis Center
Wed 03:27:35 PM 40.3350 -83.9925 96° East 448 516 37,000  Level Indianapolis Center
Wed 03:28:37 PM 40.3169 -83.7989 97° East 452 520 37,000  Level Indianapolis Center
Wed 03:29:39 PM 40.3033 -83.6339 96° East 451 519 37,000  Level Indianapolis Center
Wed 03:30:41 PM 40.2883 -83.4664 97° East 455 524 37,000  Level Indianapolis Center
Wed 03:31:43 PM 40.2728 -83.2986 97° East 459 528 37,000  Level Indianapolis Center
Wed 03:32:45 PM 40.2578 -83.1308 97° East 457 526 37,000  Level Indianapolis Center
Wed 03:33:47 PM 40.2419 -82.9636 97° East 458 527 37,000  Level Indianapolis Center
Wed 03:34:49 PM 40.2258 -82.7972 97° East 457 526 37,000  Level Indianapolis Center
Wed 03:35:51 PM 40.2081 -82.6325 98° East 454 522 37,000  Level Indianapolis Center
Wed 03:36:53 PM 40.1772 -82.4736 104° East 448 516 37,000  Level Indianapolis Center
Wed 03:37:55 PM 40.1344 -82.2897 107° East 448 516 37,000  Level Indianapolis Center
Wed 03:38:57 PM 40.0978 -82.1333 107° East 448 516 37,000  Level Indianapolis Center
Wed 03:39:59 PM 40.0628 -81.9761 106° East 447 514 37,000  Level Indianapolis Center
Wed 03:41:01 PM 40.0264 -81.8200 107° East 446 513 37,000  Level Indianapolis Center
Wed 03:42:03 PM 39.9908 -81.6669 107° East 447 514 37,000  Level Indianapolis Center
Wed 03:43:05 PM 39.9542 -81.5083 107° East 446 513 37,000  Level Indianapolis Center
Wed 03:44:07 PM 39.9147 -81.3411 107° East 445 512 37,000  Level Indianapolis Center
Wed 03:45:09 PM 39.8781 -81.1847 107° East 449 517 37,000  Level Indianapolis Center
Wed 03:46:11 PM 39.8447 -81.0286 105° East 447 514 37,000 -290 Level Indianapolis Center
Wed 03:47:13 PM 39.8092 -80.8733 107° East 447 514 36,400 -864 Descending Indianapolis Center
Wed 03:48:16 PM 39.7736 -80.7169 106° East 449 517 35,200 -1,256 Descending Indianapolis Center
Wed 03:49:22 PM 39.7317 -80.5264 106° East 442 509 33,700 -1,286 Descending Cleveland Center
Wed 03:50:22 PM 39.6981 -80.3781 106° East 442 509 32,500 -1,451 Descending Cleveland Center
Wed 03:52:24 PM 39.6289 -80.0836 107° East 435 501 29,300 -1,459 Descending Indianapolis Center
Wed 03:53:27 PM 39.5942 -79.9247 106° East 440 506 28,000 -1,113 Descending Washington Center
Wed 03:54:28 PM 39.5581 -79.7692 107° East 445 512 27,000 -504 Descending Washington Center
Wed 03:55:26 PM 39.5214 -79.6164 107° East 445 512 27,000  Level Washington Center
Wed 03:56:26 PM 39.4869 -79.4611 106° East 445 512 27,000  Level Washington Center
Wed 03:57:27 PM 39.4586 -79.3011 103° East 451 519 27,000 -347 Level Washington Center
Wed 03:58:27 PM 39.4306 -79.1275 102° East 451 519 26,300 -2,150 Descending Washington Center
Wed 03:59:27 PM 39.4017 -78.9678 103° East 451 519 22,700 -3,025 Descending Washington Center
Wed 04:00:28 PM 39.3728 -78.8133 104° East 451 519 20,200 -2,479 Descending Washington Center
Wed 04:01:28 PM 39.3431 -78.6669 105° East 444 511 17,700 -3,000 Descending Washington Center
Wed 04:02:26 PM 39.3175 -78.5292 103° East 419 482 14,300 -2,900 Descending Washington Center
Wed 04:03:28 PM 39.2933 -78.3994 103° East 391 450 11,900 -1,770 Descending Washington Center
Wed 04:04:28 PM 39.2500 -78.2906 117° Southeast 360 414 10,700 -950 Descending Washington Center
Wed 04:05:28 PM 39.2103 -78.1981 119° Southeast 323 372 10,000 -1,017 Descending Washington Center
Wed 04:06:26 PM 39.1725 -78.1136 120° Southeast 293 337 8,700 -1,373 Descending Washington Center
Wed 04:07:26 PM 39.1347 -78.0294 120° Southeast 274 315 7,300 -1,240 Descending Washington Center
Wed 04:08:27 PM 39.0989 -77.9481 120° Southeast 268 308 6,200 -1,041 Descending Washington Center
Wed 04:09:27 PM 39.0689 -77.8775 119° Southeast 257 296 5,200 -843 Descending Washington Center
Wed 04:10:28 PM 39.0308 -77.7908 119° Southeast 251 289 4,500 -555 Descending Washington Center
Wed 04:11:26 PM 39.0114 -77.7208 110° East 236 272 4,100 -876 Descending Washington Center
Wed 04:12:45 PM 38.9833 -77.6167 109° East 181 208 2,500 -1,036 Descending Potomac TRACON
Wed 04:13:45 PM 38.9667 -77.5667 113° Southeast 140 161 1,700 -800 Descending Potomac TRACON

Login

Don't have an account? Register now (free) for customized features, flight alerts, and more!